UBBBOITT

Guest
Details From UBBB - Heydar Aliyev
To OITT - Tabriz Intl
Flight Number -
Tags Generated
Created
Modified
Stats Distance 226 nm / 419 km
Max Altitude 0 ft / 0 m
Waypoints 3
Social Downloads 1
Likes 0
Share VATSIM

Download

Looking for another format? Having issues loading an existing format? Contact us
Advertisement - Login to hide

Notes

Generated

Route

UBBB TBZ OITT

ID Type Via Altitude Latitude Longitude Leg Dist Tot Dist Heading (true) Name
O UBBB APT - 0 ft / 0 m 40.48000˚ 50.03500˚ - 0 nm - -
TBZ VOR - 0 ft / 0 m 38.13908˚ 46.23089˚ 225 nm 225 nm 233° / 230° TABRIZ VORTAC
O OITT APT - 0 ft / 0 m 38.14227˚ 46.21870˚ 0 nm 226 nm 288° / 288° -

Altitude Profile

Advertisement - Login to hide

Weather


0- 5 10 15 20 25 30 35+ Temperature / ° C

Clouds and Precipitation
Forecast for 2017-12-14 06:00 UTC. Updated an hour ago

Ground ~20,000 ft ~40,000 ft Winds

UBBB

Details ICAO UBBB (GYD)
Name HEYDAR ALIYEV
Region Azerbiajan
Timezone Asia/Baku (UTC+4.0)
Stats Elevation 10 ft / 3 m (AMSL)
Location 40.470000° 50.052083°
Runways 2
Magnetic Variation 6.234° E

METAR

UBBB 140200Z 11008KT 9999 OVC043 07/04 Q1024 R88/CLRD// NOSIG

Decode

TAF

Not found

Departure Runways

ID Width Length Bearing (true) Bearing (mag) Surface Threshold Offset Overrun Length
16 197 ft / 60 m 9,110 ft / 2,777 m 159.17° 152.94° Asphalt 0 ft / 0 m 1,312 ft / 400 m
18 167 ft / 51 m 10,947 ft / 3,337 m 180.00° 173.77° Concrete 0 ft / 0 m 1,312 ft / 400 m
34 197 ft / 60 m 9,110 ft / 2,777 m 339.18° 332.95° Asphalt 0 ft / 0 m 656 ft / 200 m
36 167 ft / 51 m 10,947 ft / 3,337 m 0.00° 353.77° Concrete 444 ft / 135 m 541 ft / 165 m

OITT

Details ICAO OITT (TBZ)
Name TABRIZ INTL
Region Iran
Timezone Asia/Tehran (UTC+3.5)
Stats Elevation 4,459 ft / 1,359 m (AMSL)
Location 38.132990° 46.234937°
Runways 2
Magnetic Variation 5.632° E

METAR

OITT 140200Z 05006KT 5000 HZ NSC M04/M07 Q1022 A3019

Decode

TAF

TAF OITT 131730Z 1318/1424 06004MPS 4000 BR HZ NSC BECMG 1408/1410 6000 TEMPO 1410/1415 21006MPS

Decode

Destination Runways

ID Width Length Bearing (true) Bearing (mag) Surface Threshold Offset Overrun Length
12L 148 ft / 45 m 11,818 ft / 3,602 m 129.05° 123.42° Asphalt 0 ft / 0 m 355 ft / 108 m
12R 98 ft / 30 m 11,531 ft / 3,515 m 128.97° 123.34° Asphalt 0 ft / 0 m 340 ft / 104 m
30L 98 ft / 30 m 11,531 ft / 3,515 m 308.99° 303.36° Asphalt 0 ft / 0 m 1,130 ft / 344 m
30R 148 ft / 45 m 11,818 ft / 3,602 m 309.07° 303.44° Asphalt 0 ft / 0 m 340 ft / 104 m

Approach Navaids

Runway Type Ident Frequency Range Bearing (true) Bearing (mag) Slope Elevation
30R Localiser ITBZ 109.90 MHz 18 nm / 33 km 309.03° 303.40° - 4,459 ft / 1,359 m (AMSL)
30R Glidescope ITBZ 109.90 MHz 10 nm / 19 km 309.06° 303.43° 3.00° 4,459 ft / 1,359 m (AMSL)
30R DME ITBZ 109.90 MHz 18 nm / 33 km - - - 4,459 ft / 1,359 m (AMSL)

Popular Alternatives